Worthing, South Dakota
Current Conditions -  °F | °C
As of 8:56 AM on Monday 22 Dec 2014 (Local Time) from KFSD Reporting Station
Light Rain Light Rain  
Wind Chill: 34°   Ceiling: 500
Heat Index: 40°   Visibility: 6mi
Dew Point: 39°   Wind: 9mph
Humidity: 97%   Direction: 180°S
Pressure: 29.45"   Gusts: NA
Location:  43.33°N, 96.76°W
Report Text: KFSD 221456Z 18008KT 6SM -RA BR OVC005 04/04 A2945 RMK AO2 SLP981 P0001 60007 T00440039 58005
Loading
Personal Weather Stations






























Interactive Weather Map New forecast layout! Learn more

10-Day Weather Forecast

Advertisements
Track Severe Weather on mobile